createdAt,value
2023-02-25T00:01:26.616Z,18.50
2023-02-25T00:03:57.421Z,18.50
2023-02-25T00:06:24.988Z,18.50
2023-02-25T00:08:54.110Z,18.44
2023-02-25T00:11:24.150Z,18.44
2023-02-25T00:13:51.113Z,18.44
2023-02-25T00:16:18.595Z,18.44
2023-02-25T00:18:46.913Z,18.44
2023-02-25T00:21:16.081Z,18.44
2023-02-25T00:23:44.696Z,18.38
2023-02-25T00:26:12.070Z,18.38
2023-02-25T00:28:42.251Z,18.38
2023-02-25T00:31:35.208Z,18.38
2023-02-25T00:34:01.880Z,18.38
2023-02-25T00:36:28.543Z,18.31
2023-02-25T00:38:57.644Z,18.31
2023-02-25T00:41:27.228Z,18.31
2023-02-25T00:44:00.255Z,18.31
2023-02-25T00:46:29.686Z,18.25
2023-02-25T00:48:58.539Z,18.25
2023-02-25T00:51:29.152Z,18.25
2023-02-25T00:53:56.886Z,18.25
2023-02-25T00:56:26.017Z,18.25
2023-02-25T00:58:53.470Z,18.25
2023-02-25T01:01:23.525Z,18.25
2023-02-25T01:03:52.796Z,18.19
2023-02-25T01:06:19.731Z,18.19
2023-02-25T01:08:46.795Z,18.19
2023-02-25T01:11:15.576Z,18.19
2023-02-25T01:13:43.548Z,18.19
2023-02-25T01:16:12.263Z,18.19
2023-02-25T01:18:40.316Z,18.19
2023-02-25T01:21:07.521Z,18.19
2023-02-25T01:23:34.177Z,18.19
2023-02-25T01:26:03.570Z,18.13
2023-02-25T01:28:30.210Z,18.13
2023-02-25T01:30:56.842Z,18.13
2023-02-25T01:33:23.479Z,18.13
2023-02-25T01:35:50.081Z,18.13
2023-02-25T01:38:16.676Z,18.13
2023-02-25T01:40:43.312Z,18.13
2023-02-25T01:43:15.804Z,18.06
2023-02-25T01:45:44.957Z,18.06
2023-02-25T01:48:22.432Z,18.06
2023-02-25T01:50:56.581Z,18.06
2023-02-25T01:53:28.489Z,18.06
2023-02-25T01:55:58.510Z,18.06
2023-02-25T01:58:27.683Z,18.00
2023-02-25T02:00:55.601Z,18.00
2023-02-25T02:03:27.967Z,18.00
2023-02-25T02:06:03.796Z,18.00
2023-02-25T02:08:33.132Z,18.00
2023-02-25T02:10:59.962Z,18.00
2023-02-25T02:13:27.268Z,18.00
2023-02-25T02:16:20.015Z,18.00
2023-02-25T02:18:58.675Z,17.94
2023-02-25T02:21:45.210Z,17.94
2023-02-25T02:24:33.337Z,17.94
2023-02-25T02:27:44.118Z,17.94
2023-02-25T02:30:23.314Z,17.94
2023-02-25T02:33:05.012Z,17.94
2023-02-25T02:35:45.805Z,17.94
2023-02-25T02:38:33.952Z,17.94
2023-02-25T02:41:12.512Z,17.88
2023-02-25T02:44:12.666Z,17.94
2023-02-25T02:46:48.635Z,17.88
2023-02-25T02:49:23.682Z,17.88
2023-02-25T02:51:58.719Z,17.88
2023-02-25T02:54:35.747Z,17.88
2023-02-25T02:57:05.550Z,17.88
2023-02-25T02:59:42.866Z,17.88
2023-02-25T03:02:17.938Z,17.88
2023-02-25T03:04:49.667Z,17.88
2023-02-25T03:07:18.555Z,17.88
2023-02-25T03:09:54.234Z,17.81
2023-02-25T03:12:21.039Z,17.81
2023-02-25T03:14:47.646Z,17.81
2023-02-25T03:17:23.905Z,17.81
2023-02-25T03:20:21.392Z,17.81
2023-02-25T03:22:52.418Z,17.75
2023-02-25T03:25:21.915Z,17.75
2023-02-25T03:27:52.941Z,17.75
2023-02-25T03:30:25.505Z,17.75
2023-02-25T03:33:08.076Z,17.75
2023-02-25T03:35:35.865Z,17.75
2023-02-25T03:38:09.145Z,17.75
2023-02-25T03:40:39.960Z,17.75
2023-02-25T03:43:36.080Z,17.75
2023-02-25T03:46:05.703Z,17.69
2023-02-25T03:48:36.540Z,17.69
2023-02-25T03:51:05.412Z,17.75
2023-02-25T03:53:35.250Z,17.69
2023-02-25T03:56:09.297Z,17.69
2023-02-25T03:58:39.652Z,17.69
2023-02-25T04:01:17.648Z,17.69
2023-02-25T04:03:44.550Z,17.69
2023-02-25T04:06:14.903Z,17.69
2023-02-25T04:08:42.339Z,17.69
2023-02-25T04:11:08.984Z,17.69
2023-02-25T04:13:35.614Z,17.69
2023-02-25T04:16:02.282Z,17.63
2023-02-25T04:18:28.848Z,17.63
2023-02-25T04:20:55.480Z,17.63
2023-02-25T04:23:22.080Z,17.63
2023-02-25T04:25:48.710Z,17.63
2023-02-25T04:28:15.349Z,17.63
2023-02-25T04:30:42.302Z,17.63
2023-02-25T04:33:11.424Z,17.63
2023-02-25T04:35:38.324Z,17.56
2023-02-25T04:38:06.405Z,17.63
2023-02-25T04:40:34.742Z,17.56
2023-02-25T04:43:01.402Z,17.56
2023-02-25T04:45:28.374Z,17.63
2023-02-25T04:47:59.193Z,17.56
2023-02-25T04:50:26.390Z,17.56
2023-02-25T04:52:53.008Z,17.56
2023-02-25T04:55:20.018Z,17.56
2023-02-25T04:57:47.216Z,17.56
2023-02-25T05:00:20.672Z,17.56
2023-02-25T05:02:48.691Z,17.50
2023-02-25T05:05:16.730Z,17.56
2023-02-25T05:07:44.025Z,17.50
2023-02-25T05:10:13.135Z,17.50
2023-02-25T05:12:39.782Z,17.50
2023-02-25T05:15:08.607Z,17.50
2023-02-25T05:17:36.169Z,17.50
2023-02-25T05:20:07.737Z,17.50
2023-02-25T05:22:34.917Z,17.50
2023-02-25T05:25:01.459Z,17.50
2023-02-25T05:27:28.035Z,17.50
2023-02-25T05:29:54.802Z,17.50
2023-02-25T05:32:22.107Z,17.50
2023-02-25T05:34:48.806Z,17.44
2023-02-25T05:37:15.678Z,17.44
2023-02-25T05:39:42.404Z,17.44
2023-02-25T05:42:09.018Z,17.44
2023-02-25T05:44:35.623Z,17.44
2023-02-25T05:47:02.317Z,17.44
2023-02-25T05:49:29.629Z,17.44
2023-02-25T05:51:56.237Z,17.44
2023-02-25T05:54:22.858Z,17.44
2023-02-25T05:56:52.135Z,17.44
2023-02-25T05:59:20.612Z,17.44
2023-02-25T06:01:47.304Z,17.44
2023-02-25T06:04:14.002Z,17.44
2023-02-25T06:06:41.750Z,17.38
2023-02-25T06:09:10.273Z,17.38
2023-02-25T06:11:36.986Z,17.38
2023-02-25T06:14:03.604Z,17.38
2023-02-25T06:16:32.054Z,17.38
2023-02-25T06:19:01.098Z,17.38
2023-02-25T06:21:28.302Z,17.38
2023-02-25T06:23:55.241Z,17.38
2023-02-25T06:26:22.380Z,17.38
2023-02-25T06:28:49.293Z,17.38
2023-02-25T06:31:18.488Z,17.38
2023-02-25T06:33:46.510Z,17.38
2023-02-25T06:36:13.730Z,17.38
2023-02-25T06:38:40.379Z,17.31
2023-02-25T06:41:09.350Z,17.31
2023-02-25T06:43:36.814Z,17.31
2023-02-25T06:46:05.589Z,17.31
2023-02-25T06:48:32.398Z,17.31
2023-02-25T06:50:58.980Z,17.31
2023-02-25T06:53:25.638Z,17.31
2023-02-25T06:55:52.193Z,17.31
2023-02-25T06:58:18.817Z,17.31
2023-02-25T07:00:45.569Z,17.31
2023-02-25T07:03:15.547Z,17.31
2023-02-25T07:05:42.237Z,17.31
2023-02-25T07:08:08.926Z,17.31
2023-02-25T07:10:35.781Z,17.31
2023-02-25T07:13:02.416Z,17.31
2023-02-25T07:15:29.022Z,17.31
2023-02-25T07:17:55.613Z,17.31
2023-02-25T07:20:22.210Z,17.31
2023-02-25T07:22:48.987Z,17.31
2023-02-25T07:25:15.679Z,17.31
2023-02-25T07:27:44.769Z,17.31
2023-02-25T07:30:15.478Z,17.31
2023-02-25T07:32:43.192Z,17.31
2023-02-25T07:35:10.603Z,17.38
2023-02-25T07:37:37.726Z,17.38
2023-02-25T07:40:12.958Z,17.38
2023-02-25T07:42:43.440Z,17.44
2023-02-25T07:45:11.030Z,17.44
2023-02-25T07:47:38.318Z,17.50
2023-02-25T07:50:12.789Z,17.56
2023-02-25T07:52:39.636Z,17.63
2023-02-25T07:55:07.259Z,17.63
2023-02-25T07:57:33.860Z,17.69
2023-02-25T08:00:00.820Z,17.75
2023-02-25T08:02:27.487Z,17.81
2023-02-25T08:04:54.248Z,17.94
2023-02-25T08:07:20.902Z,18.00
2023-02-25T08:09:47.501Z,18.06
2023-02-25T08:12:14.117Z,18.06
2023-02-25T08:14:40.785Z,18.13
2023-02-25T08:17:07.414Z,18.13
2023-02-25T08:19:34.020Z,18.13
2023-02-25T08:22:00.599Z,18.13
2023-02-25T08:24:27.828Z,18.19
2023-02-25T08:26:54.771Z,18.19
2023-02-25T08:29:21.705Z,18.19
2023-02-25T08:31:51.772Z,18.25
2023-02-25T08:34:19.132Z,18.25
2023-02-25T08:36:45.836Z,18.25
2023-02-25T08:39:12.537Z,18.31
2023-02-25T08:41:39.192Z,18.31
2023-02-25T08:44:05.851Z,18.31
2023-02-25T08:46:33.503Z,18.31
2023-02-25T08:49:00.183Z,18.31
2023-02-25T08:51:34.150Z,18.31
2023-02-25T08:54:08.617Z,18.31
2023-02-25T08:56:36.861Z,18.31
2023-02-25T08:59:04.802Z,18.38
2023-02-25T09:01:44.525Z,18.38
2023-02-25T09:04:23.824Z,18.38
2023-02-25T09:06:53.796Z,18.44
2023-02-25T09:09:22.111Z,18.50
2023-02-25T09:11:49.637Z,18.63
2023-02-25T09:14:17.212Z,18.63
2023-02-25T09:16:44.136Z,18.56
2023-02-25T09:19:12.545Z,18.63
2023-02-25T09:21:40.475Z,18.63
2023-02-25T09:24:08.562Z,18.75
2023-02-25T09:26:35.302Z,19.19
2023-02-25T09:29:03.269Z,19.25
2023-02-25T09:31:29.961Z,19.44
2023-02-25T09:33:56.648Z,19.44
2023-02-25T09:36:23.405Z,19.69
2023-02-25T09:38:50.841Z,19.63
2023-02-25T09:41:41.884Z,19.50
2023-02-25T09:44:29.619Z,19.38
2023-02-25T09:47:04.381Z,19.25
2023-02-25T09:49:48.300Z,19.19
2023-02-25T09:52:22.504Z,19.19
2023-02-25T09:54:56.931Z,19.13
2023-02-25T09:57:23.803Z,19.13
2023-02-25T09:59:53.512Z,19.25
2023-02-25T10:02:37.433Z,19.31
2023-02-25T10:05:15.218Z,19.38
2023-02-25T10:07:57.149Z,19.38
2023-02-25T10:10:49.412Z,19.38
2023-02-25T10:13:46.738Z,19.44
2023-02-25T10:16:29.536Z,19.63
2023-02-25T10:19:00.007Z,19.75
2023-02-25T10:21:43.720Z,20.00
2023-02-25T10:24:48.556Z,20.38
2023-02-25T10:27:24.498Z,20.63
2023-02-25T10:29:56.987Z,20.44
2023-02-25T10:32:33.384Z,20.25
2023-02-25T10:35:10.697Z,20.00
2023-02-25T10:37:40.384Z,19.94
2023-02-25T10:40:14.164Z,19.88
2023-02-25T10:42:41.406Z,19.81
2023-02-25T10:45:14.516Z,19.94
2023-02-25T10:47:46.154Z,20.31
2023-02-25T10:50:19.143Z,20.75
2023-02-25T10:53:16.196Z,21.06
2023-02-25T10:55:52.217Z,21.50
2023-02-25T10:58:33.356Z,21.69
2023-02-25T11:01:08.931Z,21.50
2023-02-25T11:04:02.929Z,21.19
2023-02-25T11:06:33.047Z,20.88
2023-02-25T11:09:02.948Z,20.69
2023-02-25T11:11:38.618Z,20.50
2023-02-25T11:14:16.171Z,20.38
2023-02-25T11:16:45.607Z,20.25
2023-02-25T11:19:24.356Z,20.19
2023-02-25T11:21:52.345Z,20.19
2023-02-25T11:24:37.624Z,20.94
2023-02-25T11:27:08.709Z,21.94
2023-02-25T11:29:39.697Z,24.19
2023-02-25T11:32:16.698Z,25.25
2023-02-25T11:34:55.293Z,25.50
2023-02-25T11:37:48.174Z,25.63
2023-02-25T11:40:41.092Z,26.19
2023-02-25T11:45:56.287Z,25.88
2023-02-25T11:48:31.023Z,25.06
2023-02-25T11:51:09.603Z,24.19
2023-02-25T11:53:57.956Z,23.56
2023-02-25T11:56:36.475Z,23.19
2023-02-25T11:59:21.777Z,22.88
2023-02-25T12:01:57.341Z,22.56
2023-02-25T12:04:42.149Z,22.69
2023-02-25T12:07:38.289Z,23.06
2023-02-25T12:10:27.218Z,23.25
2023-02-25T12:13:11.070Z,23.13
2023-02-25T12:16:08.427Z,23.00
2023-02-25T12:19:02.470Z,23.00
2023-02-25T12:21:50.033Z,22.88
2023-02-25T12:24:58.529Z,22.69
2023-02-25T12:27:39.667Z,22.63
2023-02-25T12:30:32.235Z,22.81
2023-02-25T12:33:37.141Z,23.19
2023-02-25T12:36:31.624Z,23.63
2023-02-25T12:39:31.813Z,24.06
2023-02-25T12:42:11.158Z,24.50
2023-02-25T12:45:07.005Z,24.88
2023-02-25T12:47:48.866Z,24.75
2023-02-25T12:51:07.441Z,24.63
2023-02-25T12:54:24.648Z,24.31
2023-02-25T12:57:28.652Z,24.06
2023-02-25T13:00:32.808Z,24.44
2023-02-25T13:03:27.635Z,25.00
2023-02-25T13:06:16.923Z,25.44
2023-02-25T13:09:04.730Z,25.63
2023-02-25T13:12:11.854Z,25.25
2023-02-25T13:15:16.882Z,24.88
2023-02-25T13:18:11.420Z,24.75
2023-02-25T13:20:50.051Z,25.06
2023-02-25T13:23:16.572Z,25.44
2023-02-25T13:26:01.166Z,25.69
2023-02-25T13:29:11.488Z,26.00
2023-02-25T13:32:02.216Z,25.81
2023-02-25T13:35:13.120Z,25.38
2023-02-25T13:37:48.920Z,25.75
2023-02-25T13:40:42.990Z,26.50
2023-02-25T13:43:25.605Z,26.75
2023-02-25T13:46:05.032Z,27.63
2023-02-25T13:48:50.098Z,26.75
2023-02-25T13:51:16.611Z,26.25
2023-02-25T13:53:43.120Z,25.69
2023-02-25T13:56:43.808Z,26.50
2023-02-25T13:59:25.192Z,27.94
2023-02-25T14:02:26.087Z,28.25
2023-02-25T14:05:04.755Z,28.13
2023-02-25T14:08:04.908Z,27.88
2023-02-25T14:10:59.887Z,27.63
2023-02-25T14:13:50.997Z,27.44
2023-02-25T14:16:49.290Z,27.38
2023-02-25T14:19:23.553Z,27.38
2023-02-25T14:21:57.947Z,27.31
2023-02-25T14:24:40.580Z,27.13
2023-02-25T14:27:24.957Z,26.94
2023-02-25T14:30:33.563Z,26.44
2023-02-25T14:33:19.500Z,25.94
2023-02-25T14:36:10.027Z,26.06
2023-02-25T14:38:55.412Z,26.06
2023-02-25T14:41:54.166Z,26.00
2023-02-25T14:44:33.687Z,26.00
2023-02-25T14:47:11.620Z,26.06
2023-02-25T14:49:43.816Z,26.13
2023-02-25T14:52:16.181Z,26.13
2023-02-25T14:55:07.384Z,26.13
2023-02-25T14:57:46.118Z,26.06
2023-02-25T15:00:50.183Z,26.06
2023-02-25T15:03:35.553Z,25.94
2023-02-25T15:06:19.480Z,25.88
2023-02-25T15:09:15.239Z,25.88
2023-02-25T15:12:04.424Z,25.81
2023-02-25T15:14:59.048Z,25.75
2023-02-25T15:17:56.664Z,25.75
2023-02-25T15:20:33.592Z,25.69
2023-02-25T15:23:12.548Z,25.56
2023-02-25T15:25:47.094Z,25.50
2023-02-25T15:28:28.897Z,25.31
2023-02-25T15:30:58.615Z,25.13
2023-02-25T15:33:37.618Z,24.94
2023-02-25T15:36:18.912Z,24.81
2023-02-25T15:38:56.731Z,24.75
2023-02-25T15:41:29.529Z,24.69
2023-02-25T15:44:00.712Z,24.56
2023-02-25T15:46:36.665Z,24.50
2023-02-25T15:49:12.085Z,24.38
2023-02-25T15:51:42.266Z,24.31
2023-02-25T15:54:31.645Z,24.13
2023-02-25T15:57:23.221Z,24.06
2023-02-25T15:59:57.535Z,23.94
2023-02-25T16:02:26.996Z,23.81
2023-02-25T16:05:24.688Z,23.75
2023-02-25T16:08:05.430Z,23.63
2023-02-25T16:10:43.663Z,23.56
2023-02-25T16:13:19.818Z,23.44
2023-02-25T16:15:52.539Z,23.31
2023-02-25T16:18:40.139Z,23.19
2023-02-25T16:21:15.644Z,23.13
2023-02-25T16:23:44.343Z,23.06
2023-02-25T16:26:38.405Z,23.00
2023-02-25T16:29:35.387Z,22.94
2023-02-25T16:32:26.454Z,22.81
2023-02-25T16:35:03.284Z,22.75
2023-02-25T16:37:45.161Z,22.69
2023-02-25T16:40:26.063Z,22.56
2023-02-25T16:42:55.021Z,22.50
2023-02-25T16:45:36.292Z,22.38
2023-02-25T16:48:13.850Z,22.25
2023-02-25T16:50:43.583Z,22.19
2023-02-25T16:53:19.038Z,22.13
2023-02-25T16:55:45.853Z,22.13
2023-02-25T16:58:21.232Z,22.00
2023-02-25T17:01:07.661Z,21.94
2023-02-25T17:03:48.337Z,21.81
2023-02-25T17:06:18.886Z,21.75
2023-02-25T17:08:48.662Z,21.69
2023-02-25T17:11:20.163Z,21.63
2023-02-25T17:13:50.032Z,21.56
2023-02-25T17:16:36.588Z,21.50
2023-02-25T17:19:08.699Z,21.44
2023-02-25T17:21:38.866Z,21.38
2023-02-25T17:24:11.696Z,21.25
2023-02-25T17:26:48.016Z,21.25
2023-02-25T17:29:17.632Z,21.19
2023-02-25T17:31:47.222Z,21.13
2023-02-25T17:34:27.722Z,21.06
2023-02-25T17:36:58.020Z,21.06
2023-02-25T17:39:26.697Z,21.06
2023-02-25T17:41:53.424Z,21.06
2023-02-25T17:44:44.991Z,21.00
2023-02-25T17:47:22.069Z,21.00
2023-02-25T17:49:50.444Z,21.00
2023-02-25T17:52:19.759Z,20.94
2023-02-25T17:54:50.056Z,20.94
2023-02-25T17:57:20.322Z,20.88
2023-02-25T18:00:00.478Z,20.88
2023-02-25T18:02:36.861Z,20.88
2023-02-25T18:05:12.521Z,20.88
2023-02-25T18:07:42.142Z,20.81
2023-02-25T18:10:26.797Z,20.81
2023-02-25T18:12:55.552Z,20.81
2023-02-25T18:15:25.745Z,20.75
2023-02-25T18:17:59.058Z,20.75
2023-02-25T18:20:28.028Z,20.75
2023-02-25T18:22:55.793Z,20.69
2023-02-25T18:25:40.551Z,20.69
2023-02-25T18:28:13.628Z,20.69
2023-02-25T18:30:40.403Z,20.69
2023-02-25T18:33:08.502Z,20.69
2023-02-25T18:35:35.266Z,20.63
2023-02-25T18:38:02.830Z,20.63
2023-02-25T18:40:31.772Z,20.63
2023-02-25T18:42:59.915Z,20.63
2023-02-25T18:45:28.625Z,20.63
2023-02-25T18:48:00.388Z,20.56
2023-02-25T18:50:32.071Z,20.56
2023-02-25T18:53:00.273Z,20.56
2023-02-25T18:55:29.808Z,20.56
2023-02-25T18:57:56.597Z,20.56
2023-02-25T19:00:27.260Z,20.56
2023-02-25T19:02:59.877Z,20.56
2023-02-25T19:05:28.090Z,20.50
2023-02-25T19:07:55.064Z,20.50
2023-02-25T19:10:31.203Z,20.50
2023-02-25T19:13:05.130Z,20.50
2023-02-25T19:15:32.735Z,20.50
2023-02-25T19:17:59.476Z,20.50
2023-02-25T19:20:26.062Z,20.50
2023-02-25T19:22:54.021Z,20.50
2023-02-25T19:25:30.240Z,20.50
2023-02-25T19:27:57.682Z,20.50
2023-02-25T19:30:29.172Z,20.50
2023-02-25T19:32:55.952Z,20.50
2023-02-25T19:35:22.573Z,20.50
2023-02-25T19:37:49.360Z,20.44
2023-02-25T19:40:16.803Z,20.44
2023-02-25T19:42:44.651Z,20.44
2023-02-25T19:45:16.100Z,20.44
2023-02-25T19:47:43.041Z,20.44
2023-02-25T19:50:11.671Z,20.44
2023-02-25T19:52:38.990Z,20.44
2023-02-25T19:55:07.617Z,20.44
2023-02-25T19:57:34.775Z,20.38
2023-02-25T20:00:01.353Z,20.38
2023-02-25T20:02:28.000Z,20.38
2023-02-25T20:04:54.583Z,20.38
2023-02-25T20:07:21.272Z,20.38
2023-02-25T20:09:47.881Z,20.38
2023-02-25T20:12:14.582Z,20.38
2023-02-25T20:14:41.243Z,20.31
2023-02-25T20:17:07.941Z,20.31
2023-02-25T20:19:34.993Z,20.31
2023-02-25T20:22:04.827Z,20.31
2023-02-25T20:24:32.877Z,20.31
2023-02-25T20:26:59.904Z,20.31
2023-02-25T20:29:27.671Z,20.31
2023-02-25T20:31:56.956Z,20.31
2023-02-25T20:34:28.178Z,20.31
2023-02-25T20:37:02.450Z,20.31
2023-02-25T20:39:38.121Z,20.25
2023-02-25T20:42:09.806Z,20.25
2023-02-25T20:44:36.849Z,20.25
2023-02-25T20:47:03.840Z,20.25
2023-02-25T20:49:30.984Z,20.25
2023-02-25T20:51:57.899Z,20.25
2023-02-25T20:54:24.705Z,20.25
2023-02-25T20:56:52.449Z,20.25
2023-02-25T20:59:19.348Z,20.25
2023-02-25T21:01:46.032Z,20.25
2023-02-25T21:04:13.750Z,20.25
2023-02-25T21:06:40.365Z,20.25
2023-02-25T21:09:07.298Z,20.25
2023-02-25T21:11:34.053Z,20.25
2023-02-25T21:14:00.716Z,20.25
2023-02-25T21:16:27.679Z,20.25
2023-02-25T21:18:54.684Z,20.25
2023-02-25T21:21:21.811Z,20.25
2023-02-25T21:23:51.766Z,20.25
2023-02-25T21:26:18.341Z,20.19
2023-02-25T21:28:46.661Z,20.19
2023-02-25T21:31:15.791Z,20.19
2023-02-25T21:33:42.785Z,20.19
2023-02-25T21:36:10.929Z,20.19
2023-02-25T21:38:37.942Z,20.13
2023-02-25T21:41:12.968Z,20.13
2023-02-25T21:43:40.521Z,20.06
2023-02-25T21:46:12.640Z,20.06
2023-02-25T21:48:41.531Z,20.06
2023-02-25T21:51:16.060Z,20.00
2023-02-25T21:53:42.696Z,20.00
2023-02-25T21:56:15.925Z,20.00
2023-02-25T21:58:43.924Z,20.00
2023-02-25T22:01:15.975Z,19.94
2023-02-25T22:03:43.914Z,19.94
2023-02-25T22:06:10.827Z,19.88
2023-02-25T22:08:41.811Z,19.88
2023-02-25T22:11:18.396Z,19.88
2023-02-25T22:13:45.793Z,19.81
2023-02-25T22:16:14.890Z,19.81
2023-02-25T22:18:41.584Z,19.75
2023-02-25T22:21:20.608Z,19.75
2023-02-25T22:23:49.518Z,19.75
2023-02-25T22:26:19.314Z,19.69
2023-02-25T22:28:46.826Z,19.69
2023-02-25T22:31:16.852Z,19.63
2023-02-25T22:33:44.378Z,19.63
2023-02-25T22:36:12.429Z,19.63
2023-02-25T22:38:41.992Z,19.56
2023-02-25T22:41:15.254Z,19.56
2023-02-25T22:43:42.194Z,19.50
2023-02-25T22:46:11.623Z,19.50
2023-02-25T22:48:40.262Z,19.50
2023-02-25T22:51:11.488Z,19.44
2023-02-25T22:53:40.748Z,19.44
2023-02-25T22:56:09.858Z,19.38
2023-02-25T22:58:38.985Z,19.38
2023-02-25T23:01:10.112Z,19.38
2023-02-25T23:03:38.542Z,19.31
2023-02-25T23:06:06.350Z,19.31
2023-02-25T23:08:34.477Z,19.25
2023-02-25T23:11:17.572Z,19.25
2023-02-25T23:13:47.579Z,19.25
2023-02-25T23:16:35.927Z,19.19
2023-02-25T23:19:04.940Z,19.19
2023-02-25T23:21:33.112Z,19.13
2023-02-25T23:24:01.871Z,19.13
2023-02-25T23:26:33.448Z,19.06
2023-02-25T23:29:02.886Z,19.06
2023-02-25T23:31:32.914Z,19.06
2023-02-25T23:34:08.937Z,19.06
2023-02-25T23:36:37.434Z,19.06
2023-02-25T23:39:07.814Z,19.00
2023-02-25T23:41:36.045Z,19.00
2023-02-25T23:44:03.932Z,19.00
2023-02-25T23:46:31.993Z,18.94
2023-02-25T23:49:01.097Z,18.94
2023-02-25T23:51:28.694Z,18.94
2023-02-25T23:53:58.753Z,18.88
2023-02-25T23:56:27.227Z,18.88
2023-02-25T23:58:55.509Z,18.88
